sensor_id;sensor_type;location;lat;lon;timestamp;pressure;altitude;pressure_sealevel;temperature;humidity
20930;BME280;21895;47.072;15.132;2023-09-19T00:00:46;96249.00;;;20.17;89.53
20930;BME280;21895;47.072;15.132;2023-09-19T00:03:13;96257.00;;;20.18;90.89
20930;BME280;21895;47.072;15.132;2023-09-19T00:05:40;96259.00;;;20.33;88.87
20930;BME280;21895;47.072;15.132;2023-09-19T00:08:10;96266.00;;;20.34;87.49
20930;BME280;21895;47.072;15.132;2023-09-19T00:10:39;96266.00;;;20.22;88.52
20930;BME280;21895;47.072;15.132;2023-09-19T00:13:09;96273.00;;;20.25;89.21
20930;BME280;21895;47.072;15.132;2023-09-19T00:15:44;96276.00;;;20.24;89.61
20930;BME280;21895;47.072;15.132;2023-09-19T00:18:20;96281.00;;;20.29;88.72
20930;BME280;21895;47.072;15.132;2023-09-19T00:20:48;96282.00;;;20.28;89.01
20930;BME280;21895;47.072;15.132;2023-09-19T00:23:15;96283.00;;;20.33;88.28
20930;BME280;21895;47.072;15.132;2023-09-19T00:25:42;96282.00;;;20.31;88.30
20930;BME280;21895;47.072;15.132;2023-09-19T00:28:08;96278.00;;;20.44;88.15
20930;BME280;21895;47.072;15.132;2023-09-19T00:30:36;96274.00;;;20.43;87.29
20930;BME280;21895;47.072;15.132;2023-09-19T00:33:05;96277.00;;;20.38;87.97
20930;BME280;21895;47.072;15.132;2023-09-19T00:35:34;96266.00;;;20.17;89.35
20930;BME280;21895;47.072;15.132;2023-09-19T00:38:01;96269.00;;;20.12;89.31
20930;BME280;21895;47.072;15.132;2023-09-19T00:40:28;96280.00;;;19.99;90.83
20930;BME280;21895;47.072;15.132;2023-09-19T00:42:58;96271.00;;;19.96;91.58
20930;BME280;21895;47.072;15.132;2023-09-19T00:45:27;96269.00;;;19.93;91.64
20930;BME280;21895;47.072;15.132;2023-09-19T00:47:54;96273.00;;;19.94;91.71
20930;BME280;21895;47.072;15.132;2023-09-19T00:50:24;96277.00;;;19.96;91.54
20930;BME280;21895;47.072;15.132;2023-09-19T00:52:55;96273.00;;;19.84;91.52
20930;BME280;21895;47.072;15.132;2023-09-19T00:55:25;96264.00;;;19.81;91.99
20930;BME280;21895;47.072;15.132;2023-09-19T00:57:52;96271.00;;;19.79;92.13
20930;BME280;21895;47.072;15.132;2023-09-19T01:00:21;96272.00;;;19.81;92.38
20930;BME280;21895;47.072;15.132;2023-09-19T01:02:49;96269.00;;;19.73;93.21
20930;BME280;21895;47.072;15.132;2023-09-19T01:05:16;96263.00;;;19.74;92.83
20930;BME280;21895;47.072;15.132;2023-09-19T01:07:44;96268.00;;;19.70;93.00
20930;BME280;21895;47.072;15.132;2023-09-19T01:10:17;96271.00;;;19.79;92.78
20930;BME280;21895;47.072;15.132;2023-09-19T01:17:14;96274.00;;;19.83;92.64
20930;BME280;21895;47.072;15.132;2023-09-19T01:20:23;96271.00;;;19.86;92.14
20930;BME280;21895;47.072;15.132;2023-09-19T01:23:12;96273.00;;;19.82;91.54
20930;BME280;21895;47.072;15.132;2023-09-19T01:29:13;96273.00;;;19.65;92.04
20930;BME280;21895;47.072;15.132;2023-09-19T01:31:47;96277.00;;;19.64;92.65
20930;BME280;21895;47.072;15.132;2023-09-19T01:34:15;96287.00;;;19.76;91.02
20930;BME280;21895;47.072;15.132;2023-09-19T01:36:42;96280.00;;;19.80;90.55
20930;BME280;21895;47.072;15.132;2023-09-19T01:39:11;96282.00;;;19.79;90.15
20930;BME280;21895;47.072;15.132;2023-09-19T01:42:13;96275.00;;;19.82;89.89
20930;BME280;21895;47.072;15.132;2023-09-19T01:45:03;96283.00;;;19.80;90.30
20930;BME280;21895;47.072;15.132;2023-09-19T01:47:43;96282.00;;;19.78;90.16
20930;BME280;21895;47.072;15.132;2023-09-19T01:50:42;96287.00;;;19.74;90.57
20930;BME280;21895;47.072;15.132;2023-09-19T01:53:25;96279.00;;;19.77;90.81
20930;BME280;21895;47.072;15.132;2023-09-19T01:55:55;96288.00;;;19.88;89.18
20930;BME280;21895;47.072;15.132;2023-09-19T01:58:46;96292.00;;;19.72;89.07
20930;BME280;21895;47.072;15.132;2023-09-19T02:01:21;96296.00;;;19.81;88.72
20930;BME280;21895;47.072;15.132;2023-09-19T02:03:50;96299.00;;;19.99;87.10
20930;BME280;21895;47.072;15.132;2023-09-19T02:06:18;96299.00;;;19.92;86.50
20930;BME280;21895;47.072;15.132;2023-09-19T02:08:45;96304.00;;;19.76;87.41
20930;BME280;21895;47.072;15.132;2023-09-19T02:11:16;96309.00;;;19.65;87.75
20930;BME280;21895;47.072;15.132;2023-09-19T02:13:43;96314.00;;;19.71;87.69
20930;BME280;21895;47.072;15.132;2023-09-19T02:16:10;96317.00;;;19.53;89.11
20930;BME280;21895;47.072;15.132;2023-09-19T02:18:37;96313.00;;;19.72;88.09
20930;BME280;21895;47.072;15.132;2023-09-19T02:21:03;96314.00;;;19.62;88.18
20930;BME280;21895;47.072;15.132;2023-09-19T02:23:30;96319.00;;;19.48;88.74
20930;BME280;21895;47.072;15.132;2023-09-19T02:25:57;96324.00;;;19.42;88.57
20930;BME280;21895;47.072;15.132;2023-09-19T02:28:24;96316.00;;;19.63;79.20
20930;BME280;21895;47.072;15.132;2023-09-19T02:30:52;96312.00;;;19.78;78.40
20930;BME280;21895;47.072;15.132;2023-09-19T02:33:19;96319.00;;;19.86;82.53
20930;BME280;21895;47.072;15.132;2023-09-19T02:35:46;96319.00;;;19.83;80.04
20930;BME280;21895;47.072;15.132;2023-09-19T02:38:14;96322.00;;;19.79;81.58
20930;BME280;21895;47.072;15.132;2023-09-19T02:40:44;96326.00;;;19.83;75.81
20930;BME280;21895;47.072;15.132;2023-09-19T02:43:11;96326.00;;;19.81;78.19
20930;BME280;21895;47.072;15.132;2023-09-19T02:45:37;96331.00;;;19.86;76.14
20930;BME280;21895;47.072;15.132;2023-09-19T02:48:05;96335.00;;;19.86;73.27
20930;BME280;21895;47.072;15.132;2023-09-19T02:50:33;96347.00;;;19.69;74.33
20930;BME280;21895;47.072;15.132;2023-09-19T02:53:00;96351.00;;;19.82;73.58
20930;BME280;21895;47.072;15.132;2023-09-19T02:55:29;96353.00;;;19.87;70.68
20930;BME280;21895;47.072;15.132;2023-09-19T02:57:56;96363.00;;;19.60;70.00
20930;BME280;21895;47.072;15.132;2023-09-19T03:00:23;96364.00;;;19.46;69.51
20930;BME280;21895;47.072;15.132;2023-09-19T03:02:53;96366.00;;;19.35;71.91
20930;BME280;21895;47.072;15.132;2023-09-19T03:05:23;96365.00;;;19.31;71.43
20930;BME280;21895;47.072;15.132;2023-09-19T03:07:50;96364.00;;;19.35;71.96
20930;BME280;21895;47.072;15.132;2023-09-19T03:10:20;96361.00;;;19.38;72.68
20930;BME280;21895;47.072;15.132;2023-09-19T03:12:47;96357.00;;;19.31;72.48
20930;BME280;21895;47.072;15.132;2023-09-19T03:15:15;96359.00;;;19.27;72.29
20930;BME280;21895;47.072;15.132;2023-09-19T03:17:46;96372.00;;;19.38;71.93
20930;BME280;21895;47.072;15.132;2023-09-19T03:20:15;96375.00;;;19.39;71.87
20930;BME280;21895;47.072;15.132;2023-09-19T03:22:44;96379.00;;;19.31;71.88
20930;BME280;21895;47.072;15.132;2023-09-19T03:25:11;96373.00;;;19.27;72.42
20930;BME280;21895;47.072;15.132;2023-09-19T03:27:39;96376.00;;;19.41;72.03
20930;BME280;21895;47.072;15.132;2023-09-19T03:30:07;96373.00;;;19.48;72.93
20930;BME280;21895;47.072;15.132;2023-09-19T03:32:49;96383.00;;;19.52;72.95
20930;BME280;21895;47.072;15.132;2023-09-19T03:35:17;96381.00;;;19.48;73.17
20930;BME280;21895;47.072;15.132;2023-09-19T03:37:44;96365.00;;;19.42;75.74
20930;BME280;21895;47.072;15.132;2023-09-19T03:40:11;96367.00;;;19.37;78.42
20930;BME280;21895;47.072;15.132;2023-09-19T03:42:39;96374.00;;;19.28;79.53
20930;BME280;21895;47.072;15.132;2023-09-19T03:45:08;96381.00;;;19.23;80.75
20930;BME280;21895;47.072;15.132;2023-09-19T03:47:39;96387.00;;;19.19;81.68
20930;BME280;21895;47.072;15.132;2023-09-19T03:50:07;96380.00;;;19.00;82.88
20930;BME280;21895;47.072;15.132;2023-09-19T03:52:34;96373.00;;;18.89;82.29
20930;BME280;21895;47.072;15.132;2023-09-19T03:55:01;96391.00;;;18.94;82.87
20930;BME280;21895;47.072;15.132;2023-09-19T03:57:30;96381.00;;;18.84;82.78
20930;BME280;21895;47.072;15.132;2023-09-19T03:59:57;96380.00;;;18.73;83.92
20930;BME280;21895;47.072;15.132;2023-09-19T04:02:24;96387.00;;;18.66;85.31
20930;BME280;21895;47.072;15.132;2023-09-19T04:04:51;96392.00;;;18.66;85.76
20930;BME280;21895;47.072;15.132;2023-09-19T04:07:19;96388.00;;;18.68;84.64
20930;BME280;21895;47.072;15.132;2023-09-19T04:09:48;96397.00;;;18.67;83.59
20930;BME280;21895;47.072;15.132;2023-09-19T04:12:15;96400.00;;;18.65;83.67
20930;BME280;21895;47.072;15.132;2023-09-19T04:14:43;96415.00;;;18.75;83.09
20930;BME280;21895;47.072;15.132;2023-09-19T04:17:10;96416.00;;;18.79;82.94
20930;BME280;21895;47.072;15.132;2023-09-19T04:19:37;96416.00;;;18.72;83.49
20930;BME280;21895;47.072;15.132;2023-09-19T04:22:04;96429.00;;;18.64;84.69
20930;BME280;21895;47.072;15.132;2023-09-19T04:24:31;96423.00;;;18.94;82.97
20930;BME280;21895;47.072;15.132;2023-09-19T04:26:58;96421.00;;;18.53;85.65
20930;BME280;21895;47.072;15.132;2023-09-19T04:29:25;96424.00;;;18.53;85.07
20930;BME280;21895;47.072;15.132;2023-09-19T04:31:56;96421.00;;;18.51;85.20
20930;BME280;21895;47.072;15.132;2023-09-19T04:34:26;96419.00;;;18.54;85.99
20930;BME280;21895;47.072;15.132;2023-09-19T04:36:52;96422.00;;;18.54;86.40
20930;BME280;21895;47.072;15.132;2023-09-19T04:39:19;96416.00;;;18.69;84.70
20930;BME280;21895;47.072;15.132;2023-09-19T04:41:47;96420.00;;;18.54;84.69
20930;BME280;21895;47.072;15.132;2023-09-19T04:44:14;96418.00;;;18.53;85.78
20930;BME280;21895;47.072;15.132;2023-09-19T04:46:40;96419.00;;;18.55;85.78
20930;BME280;21895;47.072;15.132;2023-09-19T04:49:07;96421.00;;;18.51;86.74
20930;BME280;21895;47.072;15.132;2023-09-19T04:51:34;96414.00;;;18.40;87.47
20930;BME280;21895;47.072;15.132;2023-09-19T04:54:02;96420.00;;;18.35;87.96
20930;BME280;21895;47.072;15.132;2023-09-19T04:56:29;96424.00;;;18.34;87.71
20930;BME280;21895;47.072;15.132;2023-09-19T04:58:56;96434.00;;;18.30;87.78
20930;BME280;21895;47.072;15.132;2023-09-19T05:01:25;96442.00;;;18.30;87.46
20930;BME280;21895;47.072;15.132;2023-09-19T05:03:52;96455.00;;;18.30;87.16
20930;BME280;21895;47.072;15.132;2023-09-19T05:06:19;96448.00;;;18.24;87.72
20930;BME280;21895;47.072;15.132;2023-09-19T05:08:50;96452.00;;;18.26;87.18
20930;BME280;21895;47.072;15.132;2023-09-19T05:11:19;96455.00;;;18.27;87.15
20930;BME280;21895;47.072;15.132;2023-09-19T05:13:49;96452.00;;;18.21;87.51
20930;BME280;21895;47.072;15.132;2023-09-19T05:16:19;96447.00;;;18.30;87.89
20930;BME280;21895;47.072;15.132;2023-09-19T05:18:46;96458.00;;;18.39;88.17
20930;BME280;21895;47.072;15.132;2023-09-19T05:21:12;96464.00;;;18.61;85.41
20930;BME280;21895;47.072;15.132;2023-09-19T05:23:39;96461.00;;;18.49;85.79
20930;BME280;21895;47.072;15.132;2023-09-19T05:26:06;96461.00;;;18.47;85.65
20930;BME280;21895;47.072;15.132;2023-09-19T05:28:32;96475.00;;;18.44;86.20
20930;BME280;21895;47.072;15.132;2023-09-19T05:31:01;96471.00;;;18.47;85.91
20930;BME280;21895;47.072;15.132;2023-09-19T05:33:31;96468.00;;;18.54;85.90
20930;BME280;21895;47.072;15.132;2023-09-19T05:35:58;96457.00;;;18.50;86.07
20930;BME280;21895;47.072;15.132;2023-09-19T05:38:24;96458.00;;;18.53;85.29
20930;BME280;21895;47.072;15.132;2023-09-19T05:40:52;96461.00;;;18.56;85.91
20930;BME280;21895;47.072;15.132;2023-09-19T05:43:19;96469.00;;;18.61;85.88
20930;BME280;21895;47.072;15.132;2023-09-19T05:45:46;96474.00;;;18.81;84.67
20930;BME280;21895;47.072;15.132;2023-09-19T05:48:14;96465.00;;;18.89;84.16
20930;BME280;21895;47.072;15.132;2023-09-19T05:50:42;96462.00;;;19.01;82.84
20930;BME280;21895;47.072;15.132;2023-09-19T05:53:09;96476.00;;;19.10;81.81
20930;BME280;21895;47.072;15.132;2023-09-19T05:55:39;96479.00;;;19.12;81.83
20930;BME280;21895;47.072;15.132;2023-09-19T05:58:06;96483.00;;;19.06;82.55
20930;BME280;21895;47.072;15.132;2023-09-19T06:00:33;96485.00;;;19.09;82.00
20930;BME280;21895;47.072;15.132;2023-09-19T06:03:01;96484.00;;;19.19;81.93
20930;BME280;21895;47.072;15.132;2023-09-19T06:05:28;96489.00;;;19.08;82.03
20930;BME280;21895;47.072;15.132;2023-09-19T06:07:56;96484.00;;;19.08;81.91
20930;BME280;21895;47.072;15.132;2023-09-19T06:10:27;96483.00;;;19.20;81.75
20930;BME280;21895;47.072;15.132;2023-09-19T06:12:58;96478.00;;;19.14;80.58
20930;BME280;21895;47.072;15.132;2023-09-19T06:15:25;96485.00;;;18.95;81.40
20930;BME280;21895;47.072;15.132;2023-09-19T06:17:55;96492.00;;;19.16;80.66
20930;BME280;21895;47.072;15.132;2023-09-19T06:20:23;96492.00;;;19.17;80.92
20930;BME280;21895;47.072;15.132;2023-09-19T06:22:50;96479.00;;;19.02;82.33
20930;BME280;21895;47.072;15.132;2023-09-19T06:25:17;96483.00;;;19.23;81.79
20930;BME280;21895;47.072;15.132;2023-09-19T06:27:49;96490.00;;;19.07;82.58
20930;BME280;21895;47.072;15.132;2023-09-19T06:30:18;96502.00;;;19.16;82.67
20930;BME280;21895;47.072;15.132;2023-09-19T06:32:46;96508.00;;;19.23;82.84
20930;BME280;21895;47.072;15.132;2023-09-19T06:35:14;96500.00;;;19.24;83.01
20930;BME280;21895;47.072;15.132;2023-09-19T06:37:43;96507.00;;;19.21;82.69
20930;BME280;21895;47.072;15.132;2023-09-19T06:40:11;96531.00;;;19.41;81.66
20930;BME280;21895;47.072;15.132;2023-09-19T06:42:47;96533.00;;;19.33;81.88
20930;BME280;21895;47.072;15.132;2023-09-19T06:45:16;96537.00;;;19.30;81.96
20930;BME280;21895;47.072;15.132;2023-09-19T06:47:47;96542.00;;;19.16;82.70
20930;BME280;21895;47.072;15.132;2023-09-19T06:50:21;96540.00;;;19.27;80.82
20930;BME280;21895;47.072;15.132;2023-09-19T06:52:53;96545.00;;;19.40;79.32
20930;BME280;21895;47.072;15.132;2023-09-19T06:55:22;96548.00;;;19.59;78.02
20930;BME280;21895;47.072;15.132;2023-09-19T06:57:54;96561.00;;;19.47;78.24
20930;BME280;21895;47.072;15.132;2023-09-19T07:00:21;96575.00;;;19.35;79.04
20930;BME280;21895;47.072;15.132;2023-09-19T07:03:02;96581.00;;;19.39;79.62
20930;BME280;21895;47.072;15.132;2023-09-19T07:05:35;96578.00;;;19.32;79.88
20930;BME280;21895;47.072;15.132;2023-09-19T07:08:08;96575.00;;;19.21;80.82
20930;BME280;21895;47.072;15.132;2023-09-19T07:10:36;96571.00;;;19.15;81.61
20930;BME280;21895;47.072;15.132;2023-09-19T07:13:05;96580.00;;;19.11;82.21
20930;BME280;21895;47.072;15.132;2023-09-19T07:15:39;96584.00;;;19.13;82.39
20930;BME280;21895;47.072;15.132;2023-09-19T07:18:07;96576.00;;;19.15;82.56
20930;BME280;21895;47.072;15.132;2023-09-19T07:20:37;96577.00;;;19.28;81.39
20930;BME280;21895;47.072;15.132;2023-09-19T07:23:04;96576.00;;;19.15;82.00
20930;BME280;21895;47.072;15.132;2023-09-19T07:25:32;96573.00;;;19.07;82.95
20930;BME280;21895;47.072;15.132;2023-09-19T07:27:59;96574.00;;;19.18;82.71
20930;BME280;21895;47.072;15.132;2023-09-19T07:30:26;96578.00;;;19.34;82.42
20930;BME280;21895;47.072;15.132;2023-09-19T07:32:53;96585.00;;;19.71;82.52
20930;BME280;21895;47.072;15.132;2023-09-19T07:35:20;96576.00;;;19.98;80.30
20930;BME280;21895;47.072;15.132;2023-09-19T07:37:47;96577.00;;;20.24;77.86
20930;BME280;21895;47.072;15.132;2023-09-19T07:40:18;96575.00;;;20.76;76.59
20930;BME280;21895;47.072;15.132;2023-09-19T07:42:46;96586.00;;;21.00;76.68
20930;BME280;21895;47.072;15.132;2023-09-19T07:45:13;96588.00;;;21.41;74.77
20930;BME280;21895;47.072;15.132;2023-09-19T07:47:47;96599.00;;;21.82;71.92
20930;BME280;21895;47.072;15.132;2023-09-19T07:50:16;96600.00;;;21.95;69.87
20930;BME280;21895;47.072;15.132;2023-09-19T07:52:49;96602.00;;;22.01;69.50
20930;BME280;21895;47.072;15.132;2023-09-19T07:55:20;96603.00;;;21.99;69.50
20930;BME280;21895;47.072;15.132;2023-09-19T07:57:49;96609.00;;;21.84;69.49
20930;BME280;21895;47.072;15.132;2023-09-19T08:00:16;96619.00;;;21.91;71.35
20930;BME280;21895;47.072;15.132;2023-09-19T08:02:43;96615.00;;;22.01;70.66
20930;BME280;21895;47.072;15.132;2023-09-19T08:05:11;96618.00;;;21.99;69.99
20930;BME280;21895;47.072;15.132;2023-09-19T08:07:40;96619.00;;;22.17;70.10
20930;BME280;21895;47.072;15.132;2023-09-19T08:10:08;96626.00;;;22.39;70.87
20930;BME280;21895;47.072;15.132;2023-09-19T08:12:43;96617.00;;;22.70;66.76
20930;BME280;21895;47.072;15.132;2023-09-19T08:15:18;96616.00;;;22.96;67.53
20930;BME280;21895;47.072;15.132;2023-09-19T08:17:46;96622.00;;;23.32;64.04
20930;BME280;21895;47.072;15.132;2023-09-19T08:20:13;96624.00;;;23.40;63.91
20930;BME280;21895;47.072;15.132;2023-09-19T08:22:50;96626.00;;;23.60;63.71
20930;BME280;21895;47.072;15.132;2023-09-19T08:25:23;96621.00;;;23.74;62.71
20930;BME280;21895;47.072;15.132;2023-09-19T08:27:52;96624.00;;;23.99;59.06
20930;BME280;21895;47.072;15.132;2023-09-19T08:30:21;96629.00;;;24.00;56.47
20930;BME280;21895;47.072;15.132;2023-09-19T08:32:59;96639.00;;;24.34;59.23
20930;BME280;21895;47.072;15.132;2023-09-19T08:35:27;96632.00;;;24.38;56.56
20930;BME280;21895;47.072;15.132;2023-09-19T08:37:54;96635.00;;;24.54;57.88
20930;BME280;21895;47.072;15.132;2023-09-19T08:40:22;96632.00;;;24.38;57.24
20930;BME280;21895;47.072;15.132;2023-09-19T08:42:58;96631.00;;;24.52;58.97
20930;BME280;21895;47.072;15.132;2023-09-19T08:45:25;96619.00;;;24.68;59.30
20930;BME280;21895;47.072;15.132;2023-09-19T08:48:32;96625.00;;;25.00;58.83
20930;BME280;21895;47.072;15.132;2023-09-19T08:51:07;96628.00;;;25.35;57.46
20930;BME280;21895;47.072;15.132;2023-09-19T08:54:25;96628.00;;;25.48;57.81
20930;BME280;21895;47.072;15.132;2023-09-19T08:56:54;96623.00;;;25.36;57.06
20930;BME280;21895;47.072;15.132;2023-09-19T08:59:23;96633.00;;;25.48;57.65
20930;BME280;21895;47.072;15.132;2023-09-19T09:01:53;96632.00;;;25.65;56.64
20930;BME280;21895;47.072;15.132;2023-09-19T09:04:22;96631.00;;;25.84;54.75
20930;BME280;21895;47.072;15.132;2023-09-19T09:06:50;96636.00;;;25.99;53.95
20930;BME280;21895;47.072;15.132;2023-09-19T09:09:20;96640.00;;;25.74;53.31
20930;BME280;21895;47.072;15.132;2023-09-19T09:11:49;96629.00;;;25.89;53.64
20930;BME280;21895;47.072;15.132;2023-09-19T09:14:20;96632.00;;;26.15;52.46
20930;BME280;21895;47.072;15.132;2023-09-19T09:16:48;96633.00;;;26.17;52.28
20930;BME280;21895;47.072;15.132;2023-09-19T09:19:15;96639.00;;;26.01;50.95
20930;BME280;21895;47.072;15.132;2023-09-19T09:21:51;96640.00;;;25.86;53.64
20930;BME280;21895;47.072;15.132;2023-09-19T09:24:30;96649.00;;;26.07;51.82
20930;BME280;21895;47.072;15.132;2023-09-19T09:27:07;96642.00;;;25.85;51.42
20930;BME280;21895;47.072;15.132;2023-09-19T09:29:46;96645.00;;;25.91;52.37
20930;BME280;21895;47.072;15.132;2023-09-19T09:32:26;96646.00;;;26.09;52.33
20930;BME280;21895;47.072;15.132;2023-09-19T09:35:00;96642.00;;;25.82;52.39
20930;BME280;21895;47.072;15.132;2023-09-19T09:37:29;96640.00;;;25.64;52.70
20930;BME280;21895;47.072;15.132;2023-09-19T09:40:03;96641.00;;;25.88;51.75
20930;BME280;21895;47.072;15.132;2023-09-19T09:42:41;96648.00;;;25.86;53.59
20930;BME280;21895;47.072;15.132;2023-09-19T09:45:24;96643.00;;;26.17;53.60
20930;BME280;21895;47.072;15.132;2023-09-19T09:48:00;96636.00;;;26.31;53.36
20930;BME280;21895;47.072;15.132;2023-09-19T09:50:35;96640.00;;;26.44;52.14
20930;BME280;21895;47.072;15.132;2023-09-19T09:53:27;96643.00;;;26.61;53.09
20930;BME280;21895;47.072;15.132;2023-09-19T09:56:08;96643.00;;;27.10;49.96
20930;BME280;21895;47.072;15.132;2023-09-19T09:58:38;96648.00;;;27.30;50.08
20930;BME280;21895;47.072;15.132;2023-09-19T10:01:15;96651.00;;;27.58;49.11
20930;BME280;21895;47.072;15.132;2023-09-19T10:03:43;96647.00;;;27.42;47.76
20930;BME280;21895;47.072;15.132;2023-09-19T10:06:16;96655.00;;;27.19;46.60
20930;BME280;21895;47.072;15.132;2023-09-19T10:09:09;96645.00;;;26.99;47.81
20930;BME280;21895;47.072;15.132;2023-09-19T10:12:10;96661.00;;;26.72;48.28
20930;BME280;21895;47.072;15.132;2023-09-19T10:14:41;96658.00;;;26.25;50.19
20930;BME280;21895;47.072;15.132;2023-09-19T10:17:10;96660.00;;;26.32;51.09
20930;BME280;21895;47.072;15.132;2023-09-19T10:19:58;96662.00;;;26.22;51.78
20930;BME280;21895;47.072;15.132;2023-09-19T10:22:28;96665.00;;;26.09;52.51
20930;BME280;21895;47.072;15.132;2023-09-19T10:24:59;96666.00;;;25.90;53.39
20930;BME280;21895;47.072;15.132;2023-09-19T10:27:30;96665.00;;;26.10;52.77
20930;BME280;21895;47.072;15.132;2023-09-19T10:30:06;96670.00;;;25.86;54.21
20930;BME280;21895;47.072;15.132;2023-09-19T10:32:36;96666.00;;;26.11;53.77
20930;BME280;21895;47.072;15.132;2023-09-19T10:35:07;96658.00;;;26.23;53.47
20930;BME280;21895;47.072;15.132;2023-09-19T10:37:37;96659.00;;;26.59;53.54
20930;BME280;21895;47.072;15.132;2023-09-19T10:40:07;96663.00;;;26.80;51.59
20930;BME280;21895;47.072;15.132;2023-09-19T10:42:48;96656.00;;;27.27;51.12
20930;BME280;21895;47.072;15.132;2023-09-19T10:45:17;96658.00;;;27.44;51.30
20930;BME280;21895;47.072;15.132;2023-09-19T10:47:45;96656.00;;;27.58;49.45
20930;BME280;21895;47.072;15.132;2023-09-19T10:50:23;96659.00;;;27.84;46.68
20930;BME280;21895;47.072;15.132;2023-09-19T10:52:51;96655.00;;;27.75;45.55
20930;BME280;21895;47.072;15.132;2023-09-19T10:55:27;96651.00;;;27.78;44.82
20930;BME280;21895;47.072;15.132;2023-09-19T10:57:55;96653.00;;;27.74;45.41
20930;BME280;21895;47.072;15.132;2023-09-19T11:00:24;96646.00;;;27.43;45.50
20930;BME280;21895;47.072;15.132;2023-09-19T11:05:16;96640.00;;;26.97;43.77
20930;BME280;21895;47.072;15.132;2023-09-19T11:07:58;96652.00;;;26.62;47.94
20930;BME280;21895;47.072;15.132;2023-09-19T11:10:51;96647.00;;;26.25;47.58
20930;BME280;21895;47.072;15.132;2023-09-19T11:13:31;96641.00;;;26.34;47.44
20930;BME280;21895;47.072;15.132;2023-09-19T11:16:05;96642.00;;;26.55;46.80
20930;BME280;21895;47.072;15.132;2023-09-19T11:24:42;96644.00;;;27.02;45.73
20930;BME280;21895;47.072;15.132;2023-09-19T11:27:13;96643.00;;;26.94;45.14
20930;BME280;21895;47.072;15.132;2023-09-19T11:29:41;96646.00;;;26.82;45.71
20930;BME280;21895;47.072;15.132;2023-09-19T11:32:08;96647.00;;;26.99;43.98
20930;BME280;21895;47.072;15.132;2023-09-19T11:34:40;96651.00;;;27.06;44.56
20930;BME280;21895;47.072;15.132;2023-09-19T11:39:24;96657.00;;;26.89;45.55
20930;BME280;21895;47.072;15.132;2023-09-19T11:41:51;96649.00;;;27.14;44.43
20930;BME280;21895;47.072;15.132;2023-09-19T11:44:34;96645.00;;;27.58;43.69
20930;BME280;21895;47.072;15.132;2023-09-19T11:47:02;96643.00;;;27.67;43.06
20930;BME280;21895;47.072;15.132;2023-09-19T11:49:31;96640.00;;;27.71;42.91
20930;BME280;21895;47.072;15.132;2023-09-19T11:52:00;96645.00;;;27.64;42.67
20930;BME280;21895;47.072;15.132;2023-09-19T11:54:32;96643.00;;;27.64;43.00
20930;BME280;21895;47.072;15.132;2023-09-19T11:57:00;96634.00;;;27.77;43.66
20930;BME280;21895;47.072;15.132;2023-09-19T11:59:29;96634.00;;;27.87;42.96
20930;BME280;21895;47.072;15.132;2023-09-19T12:02:06;96632.00;;;28.06;43.29
20930;BME280;21895;47.072;15.132;2023-09-19T12:04:41;96638.00;;;28.14;43.07
20930;BME280;21895;47.072;15.132;2023-09-19T12:07:16;96625.00;;;28.03;43.24
20930;BME280;21895;47.072;15.132;2023-09-19T12:09:50;96631.00;;;28.16;42.20
20930;BME280;21895;47.072;15.132;2023-09-19T12:12:28;96631.00;;;28.30;42.91
20930;BME280;21895;47.072;15.132;2023-09-19T12:14:57;96629.00;;;27.87;45.96
20930;BME280;21895;47.072;15.132;2023-09-19T12:17:38;96624.00;;;27.73;44.91
20930;BME280;21895;47.072;15.132;2023-09-19T12:20:09;96630.00;;;27.51;44.65
20930;BME280;21895;47.072;15.132;2023-09-19T12:22:44;96637.00;;;27.18;45.17
20930;BME280;21895;47.072;15.132;2023-09-19T12:25:14;96635.00;;;26.91;45.51
20930;BME280;21895;47.072;15.132;2023-09-19T12:27:48;96634.00;;;26.85;45.52
20930;BME280;21895;47.072;15.132;2023-09-19T12:30:16;96631.00;;;26.92;45.63
20930;BME280;21895;47.072;15.132;2023-09-19T12:32:54;96636.00;;;26.98;46.54
20930;BME280;21895;47.072;15.132;2023-09-19T12:35:32;96635.00;;;26.94;46.36
20930;BME280;21895;47.072;15.132;2023-09-19T12:38:03;96632.00;;;26.78;46.99
20930;BME280;21895;47.072;15.132;2023-09-19T12:40:30;96643.00;;;26.73;47.60
20930;BME280;21895;47.072;15.132;2023-09-19T12:43:00;96634.00;;;27.02;46.37
20930;BME280;21895;47.072;15.132;2023-09-19T12:45:30;96637.00;;;27.48;46.05
20930;BME280;21895;47.072;15.132;2023-09-19T12:48:23;96645.00;;;28.00;45.50
20930;BME280;21895;47.072;15.132;2023-09-19T12:51:05;96648.00;;;28.21;43.45
20930;BME280;21895;47.072;15.132;2023-09-19T12:53:44;96655.00;;;28.08;43.27
20930;BME280;21895;47.072;15.132;2023-09-19T12:56:13;96647.00;;;27.94;44.82
20930;BME280;21895;47.072;15.132;2023-09-19T12:58:58;96646.00;;;27.61;44.73
20930;BME280;21895;47.072;15.132;2023-09-19T13:01:29;96656.00;;;27.20;44.43
20930;BME280;21895;47.072;15.132;2023-09-19T13:04:16;96651.00;;;26.68;45.39
20930;BME280;21895;47.072;15.132;2023-09-19T13:06:50;96646.00;;;26.64;45.58
20930;BME280;21895;47.072;15.132;2023-09-19T13:09:22;96645.00;;;26.36;45.62
20930;BME280;21895;47.072;15.132;2023-09-19T13:11:50;96654.00;;;26.07;47.28
20930;BME280;21895;47.072;15.132;2023-09-19T13:14:25;96650.00;;;26.10;47.12
20930;BME280;21895;47.072;15.132;2023-09-19T13:17:08;96647.00;;;26.15;47.43
20930;BME280;21895;47.072;15.132;2023-09-19T13:19:50;96633.00;;;26.32;46.81
20930;BME280;21895;47.072;15.132;2023-09-19T13:22:43;96633.00;;;26.32;46.17
20930;BME280;21895;47.072;15.132;2023-09-19T13:25:20;96632.00;;;26.58;44.56
20930;BME280;21895;47.072;15.132;2023-09-19T13:27:54;96630.00;;;26.61;45.07
20930;BME280;21895;47.072;15.132;2023-09-19T13:30:24;96634.00;;;26.64;46.42